Cordova, Tennessee
Current Conditions -  °F | °C
As of 7:50 AM on Friday 19 Dec 2014 (Local Time) from KOLV Reporting Station
Haze Haze  
Wind Chill:   Ceiling: 3300
Heat Index:   Visibility: 5mi
Dew Point:   Wind: 7mph
Humidity: 100%   Direction: 40°NE
Pressure: 30.26"   Gusts: NA
Location:  35.16°N, 89.78°W
Report Text: KOLV 191350Z 04006KT 5SM BR BKN033 03/03 A3026
Loading
Personal Weather Stations






























Interactive Weather Map New forecast layout! Learn more

10-Day Weather Forecast

Advertisements
Track Severe Weather on mobile